createdAt,value
2023-05-14T00:00:08.416Z,11.60
2023-05-14T00:02:39.322Z,11.51
2023-05-14T00:05:10.536Z,11.45
2023-05-14T00:07:39.127Z,11.42
2023-05-14T00:10:08.696Z,11.37
2023-05-14T00:12:37.388Z,11.27
2023-05-14T00:15:09.476Z,11.32
2023-05-14T00:17:38.357Z,11.29
2023-05-14T00:20:08.153Z,11.33
2023-05-14T00:22:38.340Z,11.26
2023-05-14T00:25:08.480Z,11.30
2023-05-14T00:27:37.886Z,11.15
2023-05-14T00:30:07.986Z,11.26
2023-05-14T00:32:36.636Z,11.24
2023-05-14T00:35:05.532Z,11.13
2023-05-14T00:37:34.189Z,10.99
2023-05-14T00:40:06.898Z,11.04
2023-05-14T00:42:35.765Z,10.91
2023-05-14T00:45:04.322Z,10.98
2023-05-14T00:47:35.369Z,10.94
2023-05-14T00:50:05.290Z,10.88
2023-05-14T00:52:34.290Z,10.80
2023-05-14T00:55:08.536Z,10.75
2023-05-14T00:57:37.789Z,10.67
2023-05-14T01:00:09.026Z,10.72
2023-05-14T01:02:37.923Z,10.68
2023-05-14T01:05:08.935Z,10.64
2023-05-14T01:07:43.009Z,10.64
2023-05-14T01:10:18.866Z,10.59
2023-05-14T01:12:54.570Z,10.55
2023-05-14T01:15:27.000Z,10.41
2023-05-14T01:17:58.094Z,10.40
2023-05-14T01:20:27.607Z,10.42
2023-05-14T01:22:57.624Z,10.36
2023-05-14T01:25:27.724Z,10.35
2023-05-14T01:28:02.881Z,10.36
2023-05-14T01:30:34.104Z,10.34
2023-05-14T01:33:07.453Z,10.26
2023-05-14T01:35:36.811Z,10.31
2023-05-14T01:38:09.162Z,10.27
2023-05-14T01:40:40.805Z,10.29
2023-05-14T01:43:10.097Z,10.24
2023-05-14T01:45:38.761Z,10.31
2023-05-14T01:48:07.885Z,10.30
2023-05-14T01:50:36.663Z,10.22
2023-05-14T01:53:06.709Z,10.24
2023-05-14T01:55:35.552Z,10.26
2023-05-14T01:58:04.138Z,10.30
2023-05-14T02:00:33.132Z,11.53
2023-05-14T02:03:01.825Z,12.09
2023-05-14T02:05:31.038Z,13.46
2023-05-14T02:07:59.500Z,12.99
2023-05-14T02:10:31.122Z,13.09
2023-05-14T02:12:59.663Z,14.02
2023-05-14T02:15:31.039Z,14.16
2023-05-14T02:18:00.478Z,14.27
2023-05-14T02:20:29.516Z,15.66
2023-05-14T02:22:58.391Z,15.28
2023-05-14T02:25:26.807Z,15.23
2023-05-14T02:27:56.725Z,15.24
2023-05-14T02:30:25.572Z,16.59
2023-05-14T02:32:54.448Z,15.51
2023-05-14T02:35:22.900Z,16.01
2023-05-14T02:37:51.528Z,13.35
2023-05-14T02:40:20.137Z,11.98
2023-05-14T02:42:49.380Z,12.09
2023-05-14T02:45:19.123Z,11.67
2023-05-14T02:47:47.820Z,11.26
2023-05-14T02:50:17.730Z,11.36
2023-05-14T02:52:48.164Z,11.30
2023-05-14T02:55:17.035Z,11.30
2023-05-14T02:57:45.513Z,11.15
2023-05-14T03:00:14.820Z,11.09
2023-05-14T03:02:45.634Z,11.10
2023-05-14T03:05:14.489Z,11.02
2023-05-14T03:07:43.106Z,11.06
2023-05-14T03:10:14.792Z,10.99
2023-05-14T03:12:43.619Z,10.96
2023-05-14T03:15:12.765Z,10.99
2023-05-14T03:17:41.434Z,11.16
2023-05-14T03:20:12.841Z,11.14
2023-05-14T03:22:41.421Z,11.00
2023-05-14T03:25:10.504Z,10.83
2023-05-14T03:27:39.069Z,10.82
2023-05-14T03:30:08.885Z,10.72
2023-05-14T03:32:39.002Z,10.66
2023-05-14T03:35:08.603Z,10.61
2023-05-14T03:37:38.637Z,10.63
2023-05-14T03:40:08.660Z,10.77
2023-05-14T03:42:38.514Z,10.88
2023-05-14T03:45:08.168Z,10.91
2023-05-14T03:47:38.569Z,11.04
2023-05-14T03:50:09.219Z,11.15
2023-05-14T03:52:39.159Z,11.27
2023-05-14T03:55:08.645Z,11.57
2023-05-14T03:57:37.976Z,11.66
2023-05-14T04:00:07.363Z,11.57
2023-05-14T04:02:46.162Z,11.54
2023-05-14T04:05:15.136Z,11.86
2023-05-14T04:07:45.922Z,11.76
2023-05-14T04:10:15.133Z,11.67
2023-05-14T04:12:43.483Z,11.30
2023-05-14T04:15:12.862Z,11.48
2023-05-14T04:17:42.060Z,11.25
2023-05-14T04:20:11.449Z,11.60
2023-05-14T04:22:39.894Z,11.80
2023-05-14T04:25:10.362Z,11.64
2023-05-14T04:27:38.657Z,11.59
2023-05-14T04:30:11.724Z,11.82
2023-05-14T04:32:40.126Z,11.77
2023-05-14T04:35:10.771Z,11.50
2023-05-14T04:37:39.370Z,11.79
2023-05-14T04:40:11.434Z,11.59
2023-05-14T04:42:40.375Z,11.56
2023-05-14T04:45:09.613Z,11.67
2023-05-14T04:47:38.148Z,11.53
2023-05-14T04:50:08.882Z,11.61
2023-05-14T04:52:37.340Z,11.69
2023-05-14T04:55:06.755Z,11.70
2023-05-14T04:57:36.876Z,11.99
2023-05-14T05:00:10.157Z,12.17
2023-05-14T05:02:38.679Z,12.10
2023-05-14T05:05:07.718Z,12.14
2023-05-14T05:07:36.382Z,12.29
2023-05-14T05:10:04.996Z,12.42
2023-05-14T05:12:36.543Z,12.18
2023-05-14T05:15:08.071Z,12.30
2023-05-14T05:17:38.342Z,12.30
2023-05-14T05:20:11.061Z,12.30
2023-05-14T05:22:39.537Z,12.28
2023-05-14T05:25:09.240Z,12.11
2023-05-14T05:27:41.538Z,12.30
2023-05-14T05:30:11.369Z,12.53
2023-05-14T05:32:39.705Z,12.59
2023-05-14T05:35:08.802Z,12.54
2023-05-14T05:37:37.149Z,12.76
2023-05-14T05:40:07.002Z,12.74
2023-05-14T05:42:35.580Z,12.94
2023-05-14T05:45:07.705Z,12.82
2023-05-14T05:47:36.743Z,12.90
2023-05-14T05:50:05.672Z,12.96
2023-05-14T05:52:34.308Z,12.91
2023-05-14T05:55:05.955Z,12.79
2023-05-14T05:57:36.432Z,13.02
2023-05-14T06:00:14.269Z,12.99
2023-05-14T06:02:44.428Z,13.27
2023-05-14T06:05:13.345Z,13.11
2023-05-14T06:07:41.817Z,13.25
2023-05-14T06:10:10.383Z,13.35
2023-05-14T06:12:39.190Z,13.56
2023-05-14T06:15:11.633Z,13.56
2023-05-14T06:17:40.552Z,13.77
2023-05-14T06:20:09.981Z,13.57
2023-05-14T06:22:38.937Z,13.61
2023-05-14T06:25:08.114Z,13.94
2023-05-14T06:27:36.750Z,14.19
2023-05-14T06:30:09.159Z,14.19
2023-05-14T06:32:39.192Z,14.18
2023-05-14T06:35:08.963Z,14.26
2023-05-14T06:37:37.654Z,14.41
2023-05-14T06:40:07.491Z,14.57
2023-05-14T06:42:38.902Z,14.74
2023-05-14T06:45:08.662Z,14.49
2023-05-14T06:47:38.603Z,14.52
2023-05-14T06:50:09.512Z,14.89
2023-05-14T06:52:43.652Z,14.93
2023-05-14T06:55:12.185Z,15.01
2023-05-14T06:57:41.052Z,14.96
2023-05-14T07:00:10.564Z,14.92
2023-05-14T07:02:40.372Z,15.05
2023-05-14T07:05:09.816Z,14.90
2023-05-14T07:07:38.180Z,14.85
2023-05-14T07:10:08.230Z,15.14
2023-05-14T07:12:36.639Z,14.90
2023-05-14T07:15:05.880Z,14.75
2023-05-14T07:17:35.728Z,14.94
2023-05-14T07:20:07.104Z,14.95
2023-05-14T07:22:35.768Z,15.04
2023-05-14T07:25:06.539Z,14.94
2023-05-14T07:27:37.451Z,15.62
2023-05-14T07:30:09.930Z,16.17
2023-05-14T07:32:38.703Z,15.42
2023-05-14T07:35:09.717Z,15.84
2023-05-14T07:37:38.603Z,15.23
2023-05-14T07:40:08.414Z,14.93
2023-05-14T07:42:40.099Z,14.90
2023-05-14T07:45:10.218Z,14.90
2023-05-14T07:47:40.015Z,14.82
2023-05-14T07:50:11.527Z,14.68
2023-05-14T07:52:40.070Z,14.85
2023-05-14T07:55:09.226Z,15.01
2023-05-14T07:57:38.555Z,15.10
2023-05-14T08:00:09.166Z,15.06
2023-05-14T08:02:44.362Z,15.32
2023-05-14T08:05:14.686Z,15.47
2023-05-14T08:07:43.467Z,15.43
2023-05-14T08:10:12.343Z,15.56
2023-05-14T08:12:40.945Z,15.67
2023-05-14T08:15:10.629Z,15.30
2023-05-14T08:17:39.406Z,15.42
2023-05-14T08:20:12.070Z,15.24
2023-05-14T08:22:41.954Z,15.21
2023-05-14T08:25:11.073Z,15.52
2023-05-14T08:27:39.556Z,16.07
2023-05-14T08:30:09.229Z,16.70
2023-05-14T08:32:38.767Z,16.63
2023-05-14T08:35:11.392Z,16.85
2023-05-14T08:37:41.649Z,16.41
2023-05-14T08:40:11.084Z,15.90
2023-05-14T08:42:41.966Z,15.82
2023-05-14T08:45:15.004Z,15.72
2023-05-14T08:47:44.400Z,15.47
2023-05-14T08:50:12.928Z,15.23
2023-05-14T08:52:43.029Z,15.52
2023-05-14T08:55:13.200Z,15.53
2023-05-14T08:57:41.802Z,15.46
2023-05-14T09:00:15.612Z,15.61
2023-05-14T09:02:48.631Z,15.48
2023-05-14T09:05:18.947Z,15.53
2023-05-14T09:07:50.447Z,16.12
2023-05-14T09:10:19.007Z,16.41
2023-05-14T09:12:49.296Z,16.36
2023-05-14T09:15:17.926Z,16.45
2023-05-14T09:17:48.288Z,16.48
2023-05-14T09:20:17.340Z,16.24
2023-05-14T09:22:45.793Z,15.81
2023-05-14T09:25:15.794Z,16.10
2023-05-14T09:27:44.179Z,16.33
2023-05-14T09:30:17.579Z,16.59
2023-05-14T09:32:46.426Z,17.02
2023-05-14T09:35:17.764Z,16.11
2023-05-14T09:37:48.261Z,16.08
2023-05-14T09:40:19.525Z,15.62
2023-05-14T09:42:50.579Z,15.23
2023-05-14T09:45:19.208Z,15.55
2023-05-14T09:47:47.869Z,16.14
2023-05-14T09:50:18.661Z,15.99
2023-05-14T09:52:47.064Z,16.30
2023-05-14T09:55:17.115Z,16.30
2023-05-14T09:57:47.673Z,17.22
2023-05-14T10:00:17.184Z,16.92
2023-05-14T10:02:47.320Z,17.12
2023-05-14T10:05:16.317Z,16.93
2023-05-14T10:07:49.233Z,16.40
2023-05-14T10:10:21.152Z,16.07
2023-05-14T10:12:53.518Z,16.03
2023-05-14T10:15:25.094Z,16.32
2023-05-14T10:17:59.255Z,16.39
2023-05-14T10:20:28.506Z,16.38
2023-05-14T10:22:57.372Z,16.16
2023-05-14T10:25:27.389Z,16.66
2023-05-14T10:27:56.099Z,16.87
2023-05-14T10:30:25.390Z,16.20
2023-05-14T10:33:08.536Z,16.52
2023-05-14T10:35:52.461Z,16.18
2023-05-14T10:38:24.462Z,16.49
2023-05-14T10:40:57.025Z,16.13
2023-05-14T10:43:26.834Z,16.90
2023-05-14T10:45:55.348Z,16.68
2023-05-14T10:48:23.996Z,16.49
2023-05-14T10:50:52.843Z,16.77
2023-05-14T10:53:22.473Z,16.60
2023-05-14T10:55:50.851Z,16.69
2023-05-14T10:58:20.735Z,16.13
2023-05-14T11:00:49.881Z,16.42
2023-05-14T11:03:19.763Z,16.60
2023-05-14T11:05:48.364Z,16.30
2023-05-14T11:08:19.373Z,16.31
2023-05-14T11:10:47.950Z,16.71
2023-05-14T11:13:18.919Z,16.47
2023-05-14T11:15:49.460Z,16.36
2023-05-14T11:18:28.093Z,16.20
2023-05-14T11:20:59.815Z,16.32
2023-05-14T11:23:29.065Z,16.22
2023-05-14T11:25:58.018Z,16.33
2023-05-14T11:28:27.979Z,16.69
2023-05-14T11:30:57.735Z,16.42
2023-05-14T11:33:29.043Z,16.56
2023-05-14T11:35:57.508Z,16.76
2023-05-14T11:38:25.877Z,16.47
2023-05-14T11:40:55.115Z,16.63
2023-05-14T11:43:23.960Z,16.52
2023-05-14T11:45:57.676Z,16.47
2023-05-14T11:48:27.605Z,16.50
2023-05-14T11:50:56.047Z,16.78
2023-05-14T11:53:31.694Z,16.62
2023-05-14T11:56:00.271Z,16.56
2023-05-14T11:58:28.743Z,16.49
2023-05-14T12:01:01.686Z,16.82
2023-05-14T12:03:33.086Z,16.11
2023-05-14T12:06:03.668Z,16.37
2023-05-14T12:08:33.112Z,16.02
2023-05-14T12:11:02.153Z,15.97
2023-05-14T12:13:31.373Z,15.77
2023-05-14T12:16:02.398Z,16.14
2023-05-14T12:18:34.003Z,15.84
2023-05-14T12:21:08.469Z,16.04
2023-05-14T12:23:40.211Z,16.39
2023-05-14T12:26:10.418Z,16.28
2023-05-14T12:28:43.647Z,16.16
2023-05-14T12:31:12.812Z,16.10
2023-05-14T12:33:42.663Z,16.41
2023-05-14T12:36:21.339Z,16.60
2023-05-14T12:38:51.289Z,16.40
2023-05-14T12:41:19.959Z,16.29
2023-05-14T12:43:50.063Z,16.16
2023-05-14T12:46:18.568Z,16.38
2023-05-14T12:48:49.042Z,15.73
2023-05-14T12:51:18.757Z,15.61
2023-05-14T12:53:47.224Z,15.61
2023-05-14T12:56:16.152Z,15.62
2023-05-14T12:58:46.701Z,15.58
2023-05-14T13:01:15.302Z,15.59
2023-05-14T13:03:43.835Z,15.26
2023-05-14T13:06:14.067Z,15.72
2023-05-14T13:08:42.750Z,15.96
2023-05-14T13:11:11.631Z,15.64
2023-05-14T13:13:40.176Z,15.38
2023-05-14T13:16:16.884Z,15.67
2023-05-14T13:18:46.150Z,15.60
2023-05-14T13:21:16.054Z,15.43
2023-05-14T13:23:44.655Z,15.45
2023-05-14T13:26:13.110Z,15.35
2023-05-14T13:28:41.751Z,15.48
2023-05-14T13:31:12.118Z,15.42
2023-05-14T13:33:42.891Z,15.50
2023-05-14T13:36:14.880Z,15.17
2023-05-14T13:38:45.902Z,15.54
2023-05-14T13:41:17.056Z,15.33
2023-05-14T13:43:45.576Z,15.43
2023-05-14T13:46:13.934Z,15.49
2023-05-14T13:48:42.526Z,15.89
2023-05-14T13:51:10.861Z,15.55
2023-05-14T13:53:39.968Z,15.70
2023-05-14T13:56:10.042Z,16.04
2023-05-14T13:58:38.542Z,15.77
2023-05-14T14:01:07.490Z,15.42
2023-05-14T14:03:36.229Z,15.58
2023-05-14T14:06:05.015Z,15.71
2023-05-14T14:08:33.651Z,15.70
2023-05-14T14:11:02.236Z,15.77
2023-05-14T14:13:32.184Z,15.49
2023-05-14T14:16:00.576Z,15.62
2023-05-14T14:18:31.594Z,15.35
2023-05-14T14:21:00.268Z,15.36
2023-05-14T14:23:28.730Z,15.36
2023-05-14T14:25:57.426Z,15.72
2023-05-14T14:28:26.237Z,15.75
2023-05-14T14:30:56.323Z,15.77
2023-05-14T14:33:24.960Z,15.46
2023-05-14T14:35:53.566Z,15.37
2023-05-14T14:38:21.857Z,15.30
2023-05-14T14:40:50.460Z,15.04
2023-05-14T14:43:19.132Z,15.13
2023-05-14T14:45:48.969Z,15.14
2023-05-14T14:48:28.271Z,15.19
2023-05-14T14:50:56.906Z,15.25
2023-05-14T14:53:26.097Z,15.16
2023-05-14T14:55:55.160Z,15.45
2023-05-14T14:58:23.878Z,15.60
2023-05-14T15:00:53.973Z,15.93
2023-05-14T15:03:22.921Z,16.02
2023-05-14T15:05:53.604Z,15.67
2023-05-14T15:08:25.793Z,15.67
2023-05-14T15:10:54.382Z,15.53
2023-05-14T15:13:24.108Z,15.42
2023-05-14T15:15:55.773Z,15.25
2023-05-14T15:18:24.343Z,15.25
2023-05-14T15:20:55.793Z,15.07
2023-05-14T15:23:24.402Z,14.98
2023-05-14T15:25:52.845Z,14.90
2023-05-14T15:28:21.425Z,14.80
2023-05-14T15:30:50.372Z,14.71
2023-05-14T15:33:23.671Z,14.76
2023-05-14T15:35:53.802Z,14.72
2023-05-14T15:38:22.207Z,14.65
2023-05-14T15:40:52.698Z,14.49
2023-05-14T15:43:23.206Z,14.61
2023-05-14T15:45:53.509Z,14.61
2023-05-14T15:48:21.949Z,14.44
2023-05-14T15:50:51.782Z,14.46
2023-05-14T15:53:21.854Z,14.44
2023-05-14T15:55:50.520Z,14.38
2023-05-14T15:58:18.925Z,14.25
2023-05-14T16:00:47.485Z,14.29
2023-05-14T16:03:15.920Z,14.17
2023-05-14T16:05:45.197Z,14.04
2023-05-14T16:08:13.605Z,14.07
2023-05-14T16:10:43.728Z,14.05
2023-05-14T16:13:12.196Z,13.97
2023-05-14T16:15:41.121Z,13.95
2023-05-14T16:18:09.785Z,13.89
2023-05-14T16:20:38.354Z,13.90
2023-05-14T16:23:06.690Z,13.80
2023-05-14T16:25:35.175Z,13.71
2023-05-14T16:28:05.569Z,13.67
2023-05-14T16:30:34.374Z,13.66
2023-05-14T16:33:02.718Z,13.71
2023-05-14T16:35:31.257Z,13.73
2023-05-14T16:37:59.850Z,13.67
2023-05-14T16:40:28.380Z,13.64
2023-05-14T16:42:56.938Z,13.61
2023-05-14T16:45:29.133Z,13.59
2023-05-14T16:47:58.478Z,13.50
2023-05-14T16:50:26.977Z,13.47
2023-05-14T16:52:55.633Z,13.41
2023-05-14T16:55:24.486Z,13.38
2023-05-14T16:57:53.059Z,13.33
2023-05-14T17:00:21.623Z,13.30
2023-05-14T17:02:54.319Z,13.26
2023-05-14T17:05:23.164Z,13.19
2023-05-14T17:07:51.989Z,13.21
2023-05-14T17:10:20.634Z,13.16
2023-05-14T17:12:48.998Z,13.13
2023-05-14T17:15:17.630Z,13.12
2023-05-14T17:17:46.416Z,13.10
2023-05-14T17:20:17.097Z,13.04
2023-05-14T17:22:48.389Z,13.05
2023-05-14T17:25:20.127Z,13.04
2023-05-14T17:27:49.033Z,13.01
2023-05-14T17:30:17.674Z,13.01
2023-05-14T17:32:51.101Z,12.99
2023-05-14T17:35:21.528Z,12.95
2023-05-14T17:37:50.090Z,12.93
2023-05-14T17:40:18.709Z,12.90
2023-05-14T17:42:47.197Z,12.81
2023-05-14T17:45:20.615Z,12.75
2023-05-14T17:47:50.550Z,12.65
2023-05-14T17:50:19.294Z,12.65
2023-05-14T17:52:49.186Z,12.60
2023-05-14T17:55:19.323Z,12.49
2023-05-14T17:57:49.559Z,12.52
2023-05-14T18:00:18.350Z,12.41
2023-05-14T18:02:47.278Z,12.34
2023-05-14T18:05:15.727Z,12.39
2023-05-14T18:07:44.186Z,12.35
2023-05-14T18:10:14.243Z,12.32
2023-05-14T18:12:44.641Z,12.30
2023-05-14T18:15:15.364Z,12.24
2023-05-14T18:17:43.930Z,12.17
2023-05-14T18:20:15.991Z,12.12
2023-05-14T18:22:47.643Z,12.07
2023-05-14T18:25:17.781Z,11.95
2023-05-14T18:27:47.043Z,12.08
2023-05-14T18:30:17.530Z,12.04
2023-05-14T18:32:46.695Z,11.94
2023-05-14T18:35:15.332Z,11.87
2023-05-14T18:37:43.847Z,11.69
2023-05-14T18:40:16.869Z,11.93
2023-05-14T18:42:48.231Z,11.86
2023-05-14T18:45:16.612Z,11.84
2023-05-14T18:47:45.519Z,11.88
2023-05-14T18:50:14.219Z,11.73
2023-05-14T18:52:42.755Z,11.67
2023-05-14T18:55:11.289Z,11.62
2023-05-14T18:57:41.053Z,11.81
2023-05-14T19:00:12.805Z,11.75
2023-05-14T19:02:41.566Z,11.62
2023-05-14T19:05:10.252Z,11.62
2023-05-14T19:07:43.034Z,11.56
2023-05-14T19:10:11.935Z,11.58
2023-05-14T19:12:40.268Z,11.47
2023-05-14T19:15:11.597Z,11.30
2023-05-14T19:17:43.066Z,11.37
2023-05-14T19:20:12.663Z,11.29
2023-05-14T19:22:41.248Z,11.48
2023-05-14T19:25:11.217Z,11.35
2023-05-14T19:27:39.856Z,11.46
2023-05-14T19:30:14.774Z,11.36
2023-05-14T19:32:43.544Z,11.30
2023-05-14T19:35:12.200Z,11.36
2023-05-14T19:37:43.556Z,11.33
2023-05-14T19:40:12.581Z,11.46
2023-05-14T19:42:41.033Z,11.29
2023-05-14T19:45:10.571Z,11.31
2023-05-14T19:47:40.597Z,11.19
2023-05-14T19:50:10.144Z,11.15
2023-05-14T19:52:39.004Z,11.24
2023-05-14T19:55:08.187Z,11.07
2023-05-14T19:57:40.019Z,11.08
2023-05-14T20:00:12.250Z,11.01
2023-05-14T20:02:43.274Z,11.06
2023-05-14T20:05:12.351Z,11.14
2023-05-14T20:07:40.950Z,10.88
2023-05-14T20:10:10.509Z,11.12
2023-05-14T20:12:38.880Z,11.21
2023-05-14T20:15:08.493Z,11.17
2023-05-14T20:17:39.598Z,11.19
2023-05-14T20:20:11.945Z,11.02
2023-05-14T20:22:40.427Z,11.05
2023-05-14T20:25:10.174Z,11.04
2023-05-14T20:27:41.172Z,11.00
2023-05-14T20:30:10.745Z,10.97
2023-05-14T20:32:39.109Z,10.90
2023-05-14T20:35:10.034Z,11.02
2023-05-14T20:37:38.497Z,10.87
2023-05-14T20:40:10.530Z,10.75
2023-05-14T20:42:39.467Z,10.79
2023-05-14T20:45:08.934Z,10.94
2023-05-14T20:47:37.374Z,10.89
2023-05-14T20:50:06.340Z,10.94
2023-05-14T20:52:36.646Z,10.84
2023-05-14T20:55:05.625Z,10.77
2023-05-14T20:57:35.386Z,10.71
2023-05-14T21:00:07.088Z,10.77
2023-05-14T21:02:39.451Z,10.64
2023-05-14T21:05:08.844Z,10.65
2023-05-14T21:07:39.463Z,10.66
2023-05-14T21:10:09.898Z,10.72
2023-05-14T21:12:42.852Z,10.65
2023-05-14T21:15:12.981Z,10.56
2023-05-14T21:17:41.458Z,10.56
2023-05-14T21:20:12.026Z,10.51
2023-05-14T21:22:41.936Z,10.59
2023-05-14T21:25:13.339Z,10.56
2023-05-14T21:27:42.166Z,10.65
2023-05-14T21:30:14.392Z,10.54
2023-05-14T21:32:43.078Z,10.61
2023-05-14T21:35:11.764Z,10.61
2023-05-14T21:37:41.982Z,10.66
2023-05-14T21:40:14.026Z,10.60
2023-05-14T21:42:42.633Z,10.46
2023-05-14T21:45:11.654Z,10.44
2023-05-14T21:47:43.401Z,10.55
2023-05-14T21:50:13.169Z,10.41
2023-05-14T21:52:43.022Z,10.44
2023-05-14T21:55:12.006Z,10.50
2023-05-14T21:57:40.439Z,10.45
2023-05-14T22:00:13.270Z,10.29
2023-05-14T22:02:43.941Z,10.30
2023-05-14T22:05:12.577Z,10.26
2023-05-14T22:07:42.648Z,10.33
2023-05-14T22:10:12.020Z,10.24
2023-05-14T22:12:40.570Z,10.26
2023-05-14T22:15:10.277Z,10.30
2023-05-14T22:17:39.171Z,10.17
2023-05-14T22:20:09.567Z,10.17
2023-05-14T22:22:38.504Z,10.14
2023-05-14T22:25:09.630Z,10.04
2023-05-14T22:27:38.301Z,10.06
2023-05-14T22:30:08.138Z,10.05
2023-05-14T22:32:36.645Z,10.09
2023-05-14T22:35:05.527Z,10.09
2023-05-14T22:37:34.158Z,9.87
2023-05-14T22:40:05.155Z,9.94
2023-05-14T22:42:35.535Z,9.92
2023-05-14T22:45:04.137Z,9.85
2023-05-14T22:47:33.621Z,9.86
2023-05-14T22:50:02.241Z,9.83
2023-05-14T22:52:32.823Z,9.87
2023-05-14T22:55:01.818Z,9.65
2023-05-14T22:57:32.831Z,9.78
2023-05-14T23:00:02.650Z,9.79
2023-05-14T23:02:35.393Z,9.71
2023-05-14T23:05:04.020Z,9.67
2023-05-14T23:07:32.665Z,9.74
2023-05-14T23:10:02.203Z,9.70
2023-05-14T23:12:33.224Z,9.52
2023-05-14T23:15:03.414Z,9.43
2023-05-14T23:17:35.862Z,9.37
2023-05-14T23:20:06.120Z,9.28
2023-05-14T23:22:34.910Z,9.26
2023-05-14T23:25:06.372Z,9.05
2023-05-14T23:27:35.216Z,9.16
2023-05-14T23:30:06.016Z,9.10
2023-05-14T23:32:34.924Z,8.96
2023-05-14T23:35:03.438Z,8.83
2023-05-14T23:37:33.829Z,8.68
2023-05-14T23:40:02.722Z,8.63
2023-05-14T23:42:36.039Z,8.68
2023-05-14T23:45:06.602Z,8.66
2023-05-14T23:47:35.569Z,8.63
2023-05-14T23:50:04.701Z,8.57
2023-05-14T23:52:33.323Z,8.46
2023-05-14T23:55:01.944Z,8.65
2023-05-14T23:57:33.456Z,8.61
